createdAt,value
2023-04-23T00:01:17.746Z,22.05
2023-04-23T00:03:45.716Z,13.65
2023-04-23T00:06:13.240Z,12.27
2023-04-23T00:08:43.722Z,12.50
2023-04-23T00:11:11.033Z,20.30
2023-04-23T00:13:38.652Z,10.73
2023-04-23T00:16:06.108Z,12.10
2023-04-23T00:18:33.180Z,14.68
2023-04-23T00:21:00.638Z,17.88
2023-04-23T00:23:29.174Z,16.23
2023-04-23T00:25:56.635Z,12.88
2023-04-23T00:28:23.870Z,14.30
2023-04-23T00:30:51.263Z,20.23
2023-04-23T00:33:18.448Z,16.52
2023-04-23T00:35:45.629Z,12.10
2023-04-23T00:38:12.650Z,15.40
2023-04-23T00:40:39.803Z,14.68
2023-04-23T00:43:07.537Z,17.25
2023-04-23T00:45:34.985Z,19.15
2023-04-23T00:48:03.162Z,18.10
2023-04-23T00:50:30.113Z,15.43
2023-04-23T00:52:57.223Z,15.23
2023-04-23T00:55:24.369Z,18.15
2023-04-23T00:57:51.573Z,16.52
2023-04-23T01:00:20.400Z,20.25
2023-04-23T01:02:49.606Z,13.52
2023-04-23T01:05:18.179Z,19.60
2023-04-23T01:07:47.034Z,17.45
2023-04-23T01:10:14.522Z,20.70
2023-04-23T01:12:41.525Z,18.45
2023-04-23T01:15:09.276Z,20.00
2023-04-23T01:17:37.255Z,19.15
2023-04-23T01:20:06.582Z,16.73
2023-04-23T01:22:37.766Z,19.00
2023-04-23T01:25:05.009Z,18.05
2023-04-23T01:27:33.368Z,21.85
2023-04-23T01:30:01.276Z,22.45
2023-04-23T01:32:28.439Z,15.00
2023-04-23T01:34:56.804Z,13.45
2023-04-23T01:37:25.278Z,11.95
2023-04-23T01:39:52.522Z,11.40
2023-04-23T01:42:20.348Z,15.98
2023-04-23T01:44:47.332Z,15.05
2023-04-23T01:47:14.353Z,15.43
2023-04-23T01:49:41.541Z,13.68
2023-04-23T01:52:08.567Z,14.43
2023-04-23T01:54:35.688Z,13.65
2023-04-23T01:57:03.216Z,11.88
2023-04-23T01:59:30.424Z,9.48
2023-04-23T02:01:57.660Z,14.43
2023-04-23T02:04:24.972Z,12.50
2023-04-23T02:06:52.467Z,17.05
2023-04-23T02:09:19.575Z,11.88
2023-04-23T02:11:46.575Z,11.90
2023-04-23T02:14:14.450Z,12.88
2023-04-23T02:16:41.395Z,9.45
2023-04-23T02:19:08.318Z,11.27
2023-04-23T02:21:35.539Z,13.13
2023-04-23T02:24:02.757Z,11.68
2023-04-23T02:26:30.097Z,14.02
2023-04-23T02:28:57.240Z,12.10
2023-04-23T02:31:24.394Z,18.42
2023-04-23T02:33:52.276Z,11.02
2023-04-23T02:36:19.433Z,11.93
2023-04-23T02:38:48.627Z,14.77
2023-04-23T02:41:15.633Z,10.65
2023-04-23T02:43:42.682Z,11.07
2023-04-23T02:46:09.782Z,10.38
2023-04-23T02:48:39.689Z,11.93
2023-04-23T02:51:08.712Z,12.93
2023-04-23T02:53:36.407Z,10.25
2023-04-23T02:56:03.744Z,11.07
2023-04-23T02:58:31.448Z,16.83
2023-04-23T03:00:58.853Z,13.38
2023-04-23T03:03:31.996Z,12.50
2023-04-23T03:06:00.940Z,15.38
2023-04-23T03:08:28.521Z,12.02
2023-04-23T03:10:55.569Z,12.25
2023-04-23T03:13:22.709Z,11.18
2023-04-23T03:15:50.865Z,11.77
2023-04-23T03:18:18.056Z,12.85
2023-04-23T03:20:45.293Z,11.20
2023-04-23T03:23:12.469Z,12.20
2023-04-23T03:25:39.825Z,14.15
2023-04-23T03:28:06.786Z,14.90
2023-04-23T03:30:34.203Z,12.00
2023-04-23T03:33:02.587Z,15.57
2023-04-23T03:35:29.734Z,20.38
2023-04-23T03:37:56.806Z,11.90
2023-04-23T03:40:23.918Z,16.83
2023-04-23T03:42:50.994Z,14.25
2023-04-23T03:45:17.967Z,16.95
2023-04-23T03:47:45.189Z,15.25
2023-04-23T03:50:15.065Z,15.13
2023-04-23T03:52:42.022Z,15.38
2023-04-23T03:55:09.812Z,18.23
2023-04-23T03:57:37.327Z,11.63
2023-04-23T04:00:08.897Z,14.95
2023-04-23T04:02:36.069Z,19.58
2023-04-23T04:05:03.351Z,15.25
2023-04-23T04:07:30.711Z,16.48
2023-04-23T04:09:57.701Z,17.02
2023-04-23T04:12:24.694Z,17.38
2023-04-23T04:14:51.862Z,15.18
2023-04-23T04:17:18.920Z,20.35
2023-04-23T04:19:46.526Z,12.48
2023-04-23T04:22:13.456Z,11.25
2023-04-23T04:24:42.504Z,19.60
2023-04-23T04:27:10.057Z,17.63
2023-04-23T04:29:37.201Z,15.85
2023-04-23T04:32:05.323Z,17.30
2023-04-23T04:34:32.796Z,16.17
2023-04-23T04:36:59.748Z,20.67
2023-04-23T04:39:27.130Z,22.08
2023-04-23T04:41:54.580Z,23.08
2023-04-23T04:44:22.528Z,26.00
2023-04-23T04:46:49.471Z,21.35
2023-04-23T04:49:19.684Z,16.52
2023-04-23T04:51:46.909Z,21.33
2023-04-23T04:54:13.849Z,18.73
2023-04-23T04:56:40.863Z,18.00
2023-04-23T04:59:07.866Z,15.68
2023-04-23T05:01:34.979Z,12.50
2023-04-23T05:04:02.370Z,17.27
2023-04-23T05:06:29.616Z,12.02
2023-04-23T05:08:56.520Z,12.52
2023-04-23T05:11:23.644Z,14.13
2023-04-23T05:13:51.089Z,15.80
2023-04-23T05:16:18.768Z,18.10
2023-04-23T05:18:46.748Z,19.80
2023-04-23T05:21:15.144Z,13.15
2023-04-23T05:23:42.032Z,13.98
2023-04-23T05:26:09.131Z,19.48
2023-04-23T05:28:36.506Z,17.42
2023-04-23T05:31:03.843Z,25.95
2023-04-23T05:33:36.464Z,15.80
2023-04-23T05:36:13.845Z,19.40
2023-04-23T05:38:41.029Z,19.35
2023-04-23T05:41:11.246Z,20.10
2023-04-23T05:43:38.950Z,19.70
2023-04-23T05:46:07.818Z,22.52
2023-04-23T05:48:35.005Z,22.73
2023-04-23T05:51:02.454Z,22.20
2023-04-23T05:53:29.897Z,28.67
2023-04-23T05:55:57.405Z,25.77
2023-04-23T05:58:24.493Z,25.17
2023-04-23T06:00:53.169Z,23.55
2023-04-23T06:03:20.839Z,18.73
2023-04-23T06:05:48.288Z,18.85
2023-04-23T06:08:15.357Z,14.52
2023-04-23T06:10:42.364Z,16.48
2023-04-23T06:13:11.156Z,15.15
2023-04-23T06:15:38.672Z,18.60
2023-04-23T06:18:05.966Z,18.33
2023-04-23T06:20:33.402Z,15.15
2023-04-23T06:23:00.396Z,10.35
2023-04-23T06:25:27.435Z,13.55
2023-04-23T06:27:54.751Z,12.82
2023-04-23T06:30:21.721Z,13.10
2023-04-23T06:32:48.770Z,8.90
2023-04-23T06:35:15.853Z,13.60
2023-04-23T06:37:43.007Z,12.50
2023-04-23T06:40:10.384Z,15.38
2023-04-23T06:42:37.542Z,13.73
2023-04-23T06:45:06.191Z,13.35
2023-04-23T06:47:33.850Z,17.27
2023-04-23T06:50:00.845Z,21.15
2023-04-23T06:52:27.856Z,15.05
2023-04-23T06:54:54.794Z,17.42
2023-04-23T06:57:22.042Z,22.92
2023-04-23T06:59:49.286Z,20.45
2023-04-23T07:02:16.390Z,28.33
2023-04-23T07:04:44.172Z,25.98
2023-04-23T07:07:12.346Z,30.08
2023-04-23T07:09:39.457Z,32.45
2023-04-23T07:12:06.569Z,25.23
2023-04-23T07:14:33.753Z,47.88
2023-04-23T07:17:00.802Z,39.67
2023-04-23T07:19:27.774Z,31.65
2023-04-23T07:21:54.919Z,39.90
2023-04-23T07:24:21.963Z,38.60
2023-04-23T07:26:48.938Z,45.05
2023-04-23T07:29:15.919Z,36.42
2023-04-23T07:31:43.173Z,42.63
2023-04-23T07:34:10.436Z,35.65
2023-04-23T07:36:37.699Z,37.50
2023-04-23T07:39:05.853Z,40.35
2023-04-23T07:41:33.301Z,39.75
2023-04-23T07:44:01.189Z,41.33
2023-04-23T07:46:28.372Z,46.78
2023-04-23T07:48:55.911Z,46.15
2023-04-23T07:51:26.799Z,35.55
2023-04-23T07:53:58.422Z,46.47
2023-04-23T07:56:25.581Z,41.10
2023-04-23T07:58:54.399Z,37.13
2023-04-23T08:01:21.923Z,43.13
2023-04-23T08:03:49.284Z,28.52
2023-04-23T08:06:16.773Z,41.30
2023-04-23T08:08:43.845Z,38.83
2023-04-23T08:11:11.713Z,39.05
2023-04-23T08:13:38.846Z,41.80
2023-04-23T08:16:06.306Z,38.80
2023-04-23T08:18:33.438Z,36.45
2023-04-23T08:21:00.340Z,49.00
2023-04-23T08:23:27.329Z,33.20
2023-04-23T08:25:54.276Z,47.55
2023-04-23T08:28:21.363Z,28.77
2023-04-23T08:30:48.617Z,37.70
2023-04-23T08:33:15.676Z,33.53
2023-04-23T08:35:42.858Z,42.47
2023-04-23T08:38:09.810Z,31.80
2023-04-23T08:40:37.900Z,31.92
2023-04-23T08:43:20.687Z,29.02
2023-04-23T08:45:48.983Z,26.73
2023-04-23T08:48:16.512Z,34.08
2023-04-23T08:50:44.212Z,29.10
2023-04-23T08:53:11.648Z,27.45
2023-04-23T08:55:39.493Z,25.83
2023-04-23T08:58:07.148Z,24.80
2023-04-23T09:00:37.069Z,34.17
2023-04-23T09:03:04.900Z,25.83
2023-04-23T09:05:32.537Z,27.98
2023-04-23T09:08:00.008Z,37.25
2023-04-23T09:10:27.369Z,28.50
2023-04-23T09:12:54.752Z,26.95
2023-04-23T09:15:22.531Z,31.10
2023-04-23T09:17:50.372Z,32.63
2023-04-23T09:20:18.010Z,27.48
2023-04-23T09:22:50.319Z,37.08
2023-04-23T09:25:22.080Z,26.65
2023-04-23T09:27:51.320Z,39.30
2023-04-23T09:30:19.392Z,27.17
2023-04-23T09:32:47.426Z,25.35
2023-04-23T09:35:16.264Z,21.88
2023-04-23T09:37:48.456Z,22.27
2023-04-23T09:40:18.246Z,19.05
2023-04-23T09:42:58.362Z,20.02
2023-04-23T09:45:26.145Z,20.80
2023-04-23T09:47:57.217Z,23.27
2023-04-23T09:50:35.734Z,21.25
2023-04-23T09:53:03.847Z,24.00
2023-04-23T09:55:37.618Z,24.80
2023-04-23T09:58:12.107Z,24.05
2023-04-23T10:00:40.496Z,25.23
2023-04-23T10:03:09.650Z,26.52
2023-04-23T10:08:13.564Z,23.17
2023-04-23T10:10:56.886Z,25.60
2023-04-23T10:13:28.831Z,26.88
2023-04-23T10:16:07.091Z,18.63
2023-04-23T10:18:38.743Z,20.20
2023-04-23T10:21:07.220Z,23.17
2023-04-23T10:23:36.161Z,24.45
2023-04-23T10:26:05.347Z,22.42
2023-04-23T10:28:34.004Z,24.55
2023-04-23T10:31:02.395Z,24.50
2023-04-23T10:33:39.938Z,26.35
2023-04-23T10:36:10.176Z,20.50
2023-04-23T10:38:45.479Z,23.55
2023-04-23T10:41:25.288Z,22.17
2023-04-23T10:43:53.856Z,23.73
2023-04-23T10:46:31.320Z,35.53
2023-04-23T10:49:16.504Z,21.58
2023-04-23T10:52:17.624Z,26.58
2023-04-23T10:54:36.211Z,27.33
2023-04-23T10:57:05.144Z,24.40
2023-04-23T10:59:33.505Z,32.42
2023-04-23T11:02:11.555Z,26.50
2023-04-23T11:05:09.091Z,32.95
2023-04-23T11:07:36.078Z,24.77
2023-04-23T11:10:13.521Z,28.33
2023-04-23T11:12:41.256Z,27.38
2023-04-23T11:15:19.561Z,24.00
2023-04-23T11:17:49.377Z,24.05
2023-04-23T11:20:20.796Z,17.23
2023-04-23T11:22:49.838Z,14.77
2023-04-23T11:25:21.347Z,18.30
2023-04-23T11:27:50.000Z,28.90
2023-04-23T11:30:19.498Z,18.35
2023-04-23T11:32:49.560Z,19.58
2023-04-23T11:35:21.910Z,23.65
2023-04-23T11:37:49.481Z,22.88
2023-04-23T11:40:20.254Z,14.32
2023-04-23T11:42:55.597Z,16.58
2023-04-23T11:45:27.825Z,17.90
2023-04-23T11:47:56.683Z,16.75
2023-04-23T11:50:33.195Z,27.25
2023-04-23T11:53:09.492Z,22.02
2023-04-23T11:55:36.933Z,22.63
2023-04-23T11:58:04.156Z,16.13
2023-04-23T12:00:31.134Z,27.33
2023-04-23T12:03:03.255Z,12.48
2023-04-23T12:05:36.951Z,11.95
2023-04-23T12:08:12.763Z,13.55
2023-04-23T12:10:44.289Z,14.43
2023-04-23T12:13:22.563Z,15.52
2023-04-23T12:15:51.027Z,15.45
2023-04-23T12:18:18.635Z,19.80
2023-04-23T12:20:46.318Z,18.38
2023-04-23T12:23:13.278Z,23.17
2023-04-23T12:25:41.862Z,23.75
2023-04-23T12:28:08.954Z,20.98
2023-04-23T12:30:43.744Z,30.50
2023-04-23T12:33:11.975Z,22.55
2023-04-23T12:35:49.928Z,19.00
2023-04-23T12:38:30.437Z,16.80
2023-04-23T12:40:59.136Z,16.23
2023-04-23T12:43:27.221Z,19.55
2023-04-23T12:45:57.239Z,13.55
2023-04-23T12:48:24.304Z,16.30
2023-04-23T12:50:51.575Z,15.20
2023-04-23T12:53:19.069Z,13.85
2023-04-23T12:55:46.204Z,24.40
2023-04-23T12:58:13.128Z,14.90
2023-04-23T13:00:40.282Z,12.57
2023-04-23T13:03:08.085Z,8.15
2023-04-23T13:05:35.414Z,11.73
2023-04-23T13:08:02.368Z,12.52
2023-04-23T13:10:30.994Z,12.38
2023-04-23T13:12:57.940Z,8.90
2023-04-23T13:15:26.928Z,11.27
2023-04-23T13:17:54.491Z,7.25
2023-04-23T13:20:21.766Z,6.32
2023-04-23T13:22:48.888Z,5.22
2023-04-23T13:25:15.864Z,7.88
2023-04-23T13:27:42.955Z,12.63
2023-04-23T13:30:10.248Z,11.60
2023-04-23T13:32:37.140Z,13.45
2023-04-23T13:35:05.214Z,8.70
2023-04-23T13:37:32.456Z,16.58
2023-04-23T13:39:59.628Z,10.82
2023-04-23T13:42:26.520Z,10.68
2023-04-23T13:44:53.480Z,13.30
2023-04-23T13:47:20.524Z,10.80
2023-04-23T13:49:47.923Z,12.68
2023-04-23T13:52:14.877Z,14.02
2023-04-23T13:54:42.319Z,17.35
2023-04-23T13:57:09.489Z,15.38
2023-04-23T13:59:36.425Z,9.98
2023-04-23T14:02:03.375Z,8.40
2023-04-23T14:04:30.723Z,15.43
2023-04-23T14:06:57.720Z,13.43
2023-04-23T14:09:25.282Z,12.18
2023-04-23T14:11:52.366Z,12.98
2023-04-23T14:14:19.431Z,18.00
2023-04-23T14:16:46.363Z,13.38
2023-04-23T14:19:13.462Z,16.40
2023-04-23T14:21:41.929Z,10.85
2023-04-23T14:24:16.742Z,13.45
2023-04-23T14:26:49.528Z,13.48
2023-04-23T14:29:23.111Z,17.30
2023-04-23T14:31:50.752Z,17.55
2023-04-23T14:34:17.738Z,14.60
2023-04-23T14:36:46.590Z,16.23
2023-04-23T14:39:13.519Z,14.18
2023-04-23T14:41:41.148Z,11.32
2023-04-23T14:44:08.130Z,11.38
2023-04-23T14:46:35.281Z,7.18
2023-04-23T14:49:02.446Z,8.65
2023-04-23T14:51:29.458Z,6.82
2023-04-23T14:53:56.905Z,12.20
2023-04-23T14:56:24.074Z,10.93
2023-04-23T14:58:51.125Z,10.43
2023-04-23T15:01:18.327Z,7.47
2023-04-23T15:03:46.124Z,7.60
2023-04-23T15:06:13.529Z,6.57
2023-04-23T15:08:40.460Z,6.35
2023-04-23T15:11:13.257Z,8.45
2023-04-23T15:13:50.305Z,14.27
2023-04-23T15:16:46.807Z,15.68
2023-04-23T15:19:18.019Z,10.00
2023-04-23T15:21:45.780Z,10.52
2023-04-23T15:24:12.701Z,17.50
2023-04-23T15:26:40.109Z,16.98
2023-04-23T15:29:09.250Z,15.88
2023-04-23T15:31:37.303Z,24.77
2023-04-23T15:34:06.274Z,21.38
2023-04-23T15:36:34.811Z,16.95
2023-04-23T15:39:01.972Z,17.95
2023-04-23T15:41:29.128Z,16.45
2023-04-23T15:43:56.832Z,14.05
2023-04-23T15:46:23.858Z,13.60
2023-04-23T15:48:50.762Z,15.65
2023-04-23T15:51:17.961Z,15.02
2023-04-23T15:53:45.095Z,11.18
2023-04-23T15:56:12.050Z,13.80
2023-04-23T15:58:39.149Z,8.90
2023-04-23T16:01:07.487Z,11.18
2023-04-23T16:03:34.855Z,9.07
2023-04-23T16:06:02.393Z,16.15
2023-04-23T16:08:29.331Z,11.23
2023-04-23T16:10:58.160Z,11.23
2023-04-23T16:13:25.620Z,13.23
2023-04-23T16:15:53.132Z,12.45
2023-04-23T16:18:20.176Z,11.60
2023-04-23T16:20:47.409Z,14.57
2023-04-23T16:23:14.525Z,15.50
2023-04-23T16:25:41.612Z,8.13
2023-04-23T16:28:08.724Z,7.75
2023-04-23T16:30:35.810Z,11.55
2023-04-23T16:33:02.811Z,12.52
2023-04-23T16:35:29.865Z,11.00
2023-04-23T16:37:56.817Z,11.98
2023-04-23T16:40:23.721Z,9.63
2023-04-23T16:42:50.752Z,10.82
2023-04-23T16:45:22.788Z,13.63
2023-04-23T16:47:52.814Z,12.45
2023-04-23T16:50:20.046Z,17.48
2023-04-23T16:52:47.216Z,12.77
2023-04-23T16:55:14.714Z,13.77
2023-04-23T16:57:41.680Z,12.20
2023-04-23T17:00:10.156Z,9.57
2023-04-23T17:02:38.155Z,12.20
2023-04-23T17:05:06.355Z,11.95
2023-04-23T17:07:33.666Z,13.90
2023-04-23T17:10:00.624Z,12.63
2023-04-23T17:12:27.622Z,13.20
2023-04-23T17:14:54.709Z,8.32
2023-04-23T17:17:21.713Z,11.85
2023-04-23T17:19:48.882Z,10.90
2023-04-23T17:22:15.944Z,9.55
2023-04-23T17:24:43.071Z,9.52
2023-04-23T17:27:10.817Z,6.78
2023-04-23T17:29:37.761Z,13.20
2023-04-23T17:32:04.878Z,9.85
2023-04-23T17:34:33.557Z,10.50
2023-04-23T17:37:00.456Z,10.95
2023-04-23T17:39:27.548Z,4.82
2023-04-23T17:41:56.168Z,10.40
2023-04-23T17:44:23.455Z,8.52
2023-04-23T17:46:52.280Z,8.02
2023-04-23T17:49:20.046Z,7.13
2023-04-23T17:51:48.629Z,13.20
2023-04-23T17:54:15.722Z,14.10
2023-04-23T17:56:42.725Z,10.93
2023-04-23T17:59:09.760Z,12.65
2023-04-23T18:01:37.025Z,9.60
2023-04-23T18:04:05.094Z,22.08
2023-04-23T18:06:33.743Z,14.77
2023-04-23T18:09:00.948Z,14.77
2023-04-23T18:11:27.938Z,16.13
2023-04-23T18:13:55.151Z,8.75
2023-04-23T18:16:22.060Z,14.63
2023-04-23T18:18:49.522Z,10.80
2023-04-23T18:21:18.450Z,10.88
2023-04-23T18:23:46.445Z,9.90
2023-04-23T18:26:13.499Z,19.77
2023-04-23T18:28:40.674Z,11.30
2023-04-23T18:31:07.975Z,10.32
2023-04-23T18:33:43.241Z,8.40
2023-04-23T18:36:24.377Z,12.55
2023-04-23T18:38:51.883Z,13.25
2023-04-23T18:41:18.831Z,16.20
2023-04-23T18:43:46.030Z,12.48
2023-04-23T18:46:13.657Z,13.93
2023-04-23T18:48:45.528Z,16.88
2023-04-23T18:51:19.714Z,14.18
2023-04-23T18:53:47.383Z,14.25
2023-04-23T18:56:15.025Z,21.27
2023-04-23T18:58:42.024Z,17.40
2023-04-23T19:01:09.089Z,16.92
2023-04-23T19:03:36.923Z,15.85
2023-04-23T19:06:07.513Z,13.60
2023-04-23T19:08:35.903Z,15.13
2023-04-23T19:11:03.749Z,19.25
2023-04-23T19:13:30.905Z,14.75
2023-04-23T19:15:58.036Z,17.63
2023-04-23T19:18:25.049Z,17.02
2023-04-23T19:20:52.790Z,16.60
2023-04-23T19:23:20.591Z,16.40
2023-04-23T19:25:48.177Z,18.67
2023-04-23T19:28:15.244Z,16.65
2023-04-23T19:30:42.484Z,19.25
2023-04-23T19:33:09.833Z,14.60
2023-04-23T19:35:39.907Z,15.43
2023-04-23T19:38:07.513Z,21.60
2023-04-23T19:40:34.811Z,18.92
2023-04-23T19:43:02.023Z,17.65
2023-04-23T19:45:30.130Z,15.68
2023-04-23T19:47:57.555Z,17.00
2023-04-23T19:50:25.644Z,17.52
2023-04-23T19:52:53.414Z,18.65
2023-04-23T19:55:22.699Z,19.35
2023-04-23T19:57:49.620Z,22.55
2023-04-23T20:00:17.160Z,21.38
2023-04-23T20:02:44.280Z,19.25
2023-04-23T20:05:11.601Z,17.23
2023-04-23T20:07:39.390Z,17.80
2023-04-23T20:10:07.484Z,19.02
2023-04-23T20:12:35.039Z,16.65
2023-04-23T20:15:02.482Z,18.10
2023-04-23T20:17:32.968Z,18.50
2023-04-23T20:20:02.111Z,15.48
2023-04-23T20:22:29.900Z,13.30
2023-04-23T20:24:58.071Z,14.35
2023-04-23T20:27:26.425Z,11.98
2023-04-23T20:29:53.434Z,14.35
2023-04-23T20:32:20.756Z,19.40
2023-04-23T20:34:47.737Z,18.42
2023-04-23T20:37:14.996Z,19.33
2023-04-23T20:39:43.649Z,18.83
2023-04-23T20:42:11.086Z,23.15
2023-04-23T20:44:38.730Z,21.90
2023-04-23T20:47:08.448Z,17.13
2023-04-23T20:49:35.624Z,15.48
2023-04-23T20:52:02.684Z,24.05
2023-04-23T20:54:29.578Z,13.57
2023-04-23T20:56:56.719Z,17.05
2023-04-23T20:59:23.693Z,16.50
2023-04-23T21:01:50.697Z,17.48
2023-04-23T21:04:17.747Z,14.35
2023-04-23T21:06:47.074Z,17.98
2023-04-23T21:09:14.590Z,16.15
2023-04-23T21:11:41.698Z,16.38
2023-04-23T21:14:09.028Z,16.75
2023-04-23T21:16:38.286Z,15.18
2023-04-23T21:19:06.124Z,12.13
2023-04-23T21:21:33.350Z,25.17
2023-04-23T21:24:01.219Z,17.48
2023-04-23T21:26:31.399Z,17.98
2023-04-23T21:28:58.668Z,12.43
2023-04-23T21:31:45.747Z,15.10
2023-04-23T21:34:13.830Z,12.80
2023-04-23T21:36:41.100Z,15.35
2023-04-23T21:39:08.272Z,17.48
2023-04-23T21:41:36.020Z,16.65
2023-04-23T21:44:03.108Z,19.75
2023-04-23T21:46:32.084Z,15.45
2023-04-23T21:48:59.340Z,15.57
2023-04-23T21:51:26.368Z,15.73
2023-04-23T21:53:53.279Z,14.95
2023-04-23T21:56:21.632Z,16.77
2023-04-23T21:58:48.687Z,20.30
2023-04-23T22:01:16.945Z,15.98
2023-04-23T22:03:47.186Z,14.23
2023-04-23T22:06:15.942Z,12.20
2023-04-23T22:08:44.782Z,20.65
2023-04-23T22:11:12.862Z,17.40
2023-04-23T22:13:39.859Z,16.52
2023-04-23T22:16:20.341Z,19.58
2023-04-23T22:18:54.400Z,16.05
2023-04-23T22:21:21.464Z,19.42
2023-04-23T22:23:48.532Z,15.88
2023-04-23T22:26:15.754Z,16.98
2023-04-23T22:28:43.685Z,13.63
2023-04-23T22:31:11.141Z,14.05
2023-04-23T22:33:38.264Z,18.08
2023-04-23T22:36:05.577Z,14.90
2023-04-23T22:38:32.620Z,10.70
2023-04-23T22:40:59.968Z,16.40
2023-04-23T22:43:26.931Z,15.48
2023-04-23T22:45:54.200Z,14.73
2023-04-23T22:48:21.568Z,18.70
2023-04-23T22:50:51.101Z,16.88
2023-04-23T22:53:19.747Z,16.58
2023-04-23T22:55:47.124Z,15.65
2023-04-23T22:58:14.349Z,13.50
2023-04-23T23:00:41.374Z,15.82
2023-04-23T23:03:08.616Z,15.43
2023-04-23T23:05:35.987Z,24.83
2023-04-23T23:08:03.197Z,14.23
2023-04-23T23:10:30.635Z,14.05
2023-04-23T23:12:57.693Z,13.00
2023-04-23T23:15:24.652Z,15.50
2023-04-23T23:17:51.587Z,15.52
2023-04-23T23:20:19.762Z,12.38
2023-04-23T23:22:47.217Z,11.75
2023-04-23T23:25:14.166Z,15.52
2023-04-23T23:27:41.607Z,20.48
2023-04-23T23:30:09.735Z,18.23
2023-04-23T23:32:37.087Z,12.75
2023-04-23T23:35:04.857Z,16.77
2023-04-23T23:37:36.802Z,18.95
2023-04-23T23:40:05.687Z,18.77
2023-04-23T23:42:32.588Z,24.10
2023-04-23T23:44:59.524Z,15.35
2023-04-23T23:47:26.998Z,14.07
2023-04-23T23:49:54.198Z,14.85
2023-04-23T23:52:21.152Z,14.35
2023-04-23T23:54:48.059Z,12.80
2023-04-23T23:57:15.019Z,15.40
2023-04-23T23:59:42.138Z,11.18
